sensor_id;sensor_type;location;lat;lon;timestamp;P1;durP1;ratioP1;P2;durP2;ratioP2
76939;SDS011;65885;55.848;35.916;2023-03-23T00:00:17;1.40;;;1.27;;
76939;SDS011;65885;55.848;35.916;2023-03-23T00:02:44;1.88;;;1.30;;
76939;SDS011;65885;55.848;35.916;2023-03-23T00:05:12;1.67;;;1.30;;
76939;SDS011;65885;55.848;35.916;2023-03-23T00:07:39;1.65;;;1.48;;
76939;SDS011;65885;55.848;35.916;2023-03-23T00:10:12;1.83;;;1.20;;
76939;SDS011;65885;55.848;35.916;2023-03-23T00:12:40;1.77;;;1.30;;
76939;SDS011;65885;55.848;35.916;2023-03-23T00:15:07;3.70;;;1.10;;
76939;SDS011;65885;55.848;35.916;2023-03-23T00:17:38;1.80;;;1.58;;
76939;SDS011;65885;55.848;35.916;2023-03-23T00:20:06;1.85;;;1.30;;
76939;SDS011;65885;55.848;35.916;2023-03-23T00:22:36;1.70;;;1.40;;
76939;SDS011;65885;55.848;35.916;2023-03-23T00:25:04;1.33;;;1.23;;
76939;SDS011;65885;55.848;35.916;2023-03-23T00:27:35;1.60;;;1.25;;
76939;SDS011;65885;55.848;35.916;2023-03-23T00:30:02;1.80;;;1.20;;
76939;SDS011;65885;55.848;35.916;2023-03-23T00:32:30;1.85;;;1.38;;
76939;SDS011;65885;55.848;35.916;2023-03-23T00:34:59;1.38;;;1.27;;
76939;SDS011;65885;55.848;35.916;2023-03-23T00:37:30;1.73;;;1.10;;
76939;SDS011;65885;55.848;35.916;2023-03-23T00:39:57;3.50;;;1.40;;
76939;SDS011;65885;55.848;35.916;2023-03-23T00:42:25;1.40;;;1.17;;
76939;SDS011;65885;55.848;35.916;2023-03-23T00:44:55;2.10;;;1.30;;
76939;SDS011;65885;55.848;35.916;2023-03-23T00:47:25;1.83;;;1.25;;
76939;SDS011;65885;55.848;35.916;2023-03-23T00:49:53;1.63;;;1.33;;
76939;SDS011;65885;55.848;35.916;2023-03-23T00:52:22;2.40;;;1.27;;
76939;SDS011;65885;55.848;35.916;2023-03-23T00:54:49;1.73;;;1.52;;
76939;SDS011;65885;55.848;35.916;2023-03-23T00:57:17;1.98;;;1.30;;
76939;SDS011;65885;55.848;35.916;2023-03-23T00:59:44;1.52;;;1.40;;
76939;SDS011;65885;55.848;35.916;2023-03-23T01:02:13;1.65;;;1.30;;
76939;SDS011;65885;55.848;35.916;2023-03-23T01:04:41;2.22;;;1.30;;
76939;SDS011;65885;55.848;35.916;2023-03-23T01:07:10;2.80;;;1.42;;
76939;SDS011;65885;55.848;35.916;2023-03-23T01:09:38;2.67;;;1.30;;
76939;SDS011;65885;55.848;35.916;2023-03-23T01:12:10;1.88;;;1.50;;
76939;SDS011;65885;55.848;35.916;2023-03-23T01:14:37;2.58;;;1.52;;
76939;SDS011;65885;55.848;35.916;2023-03-23T01:17:04;1.92;;;1.50;;
76939;SDS011;65885;55.848;35.916;2023-03-23T01:19:33;2.00;;;1.20;;
76939;SDS011;65885;55.848;35.916;2023-03-23T01:22:00;1.95;;;1.60;;
76939;SDS011;65885;55.848;35.916;2023-03-23T01:24:28;2.78;;;1.50;;
76939;SDS011;65885;55.848;35.916;2023-03-23T01:26:56;2.53;;;1.52;;
76939;SDS011;65885;55.848;35.916;2023-03-23T01:29:31;2.60;;;1.35;;
76939;SDS011;65885;55.848;35.916;2023-03-23T01:31:59;2.25;;;1.30;;
76939;SDS011;65885;55.848;35.916;2023-03-23T01:34:26;2.55;;;1.48;;
76939;SDS011;65885;55.848;35.916;2023-03-23T01:36:55;1.60;;;1.33;;
76939;SDS011;65885;55.848;35.916;2023-03-23T01:39:22;1.63;;;1.05;;
76939;SDS011;65885;55.848;35.916;2023-03-23T01:41:50;2.10;;;1.38;;
76939;SDS011;65885;55.848;35.916;2023-03-23T01:47:21;1.55;;;1.20;;
76939;SDS011;65885;55.848;35.916;2023-03-23T01:49:51;2.33;;;1.17;;
76939;SDS011;65885;55.848;35.916;2023-03-23T01:52:21;2.05;;;1.38;;
76939;SDS011;65885;55.848;35.916;2023-03-23T01:54:52;1.73;;;1.20;;
76939;SDS011;65885;55.848;35.916;2023-03-23T01:57:23;1.70;;;1.25;;
76939;SDS011;65885;55.848;35.916;2023-03-23T01:59:55;2.22;;;1.00;;
76939;SDS011;65885;55.848;35.916;2023-03-23T02:02:40;1.23;;;1.13;;
76939;SDS011;65885;55.848;35.916;2023-03-23T02:05:10;1.77;;;1.30;;
76939;SDS011;65885;55.848;35.916;2023-03-23T02:07:41;0.95;;;0.88;;
76939;SDS011;65885;55.848;35.916;2023-03-23T02:10:09;1.52;;;1.40;;
76939;SDS011;65885;55.848;35.916;2023-03-23T02:12:38;2.08;;;1.00;;
76939;SDS011;65885;55.848;35.916;2023-03-23T02:15:06;1.67;;;1.20;;
76939;SDS011;65885;55.848;35.916;2023-03-23T02:17:37;2.17;;;1.23;;
76939;SDS011;65885;55.848;35.916;2023-03-23T02:20:23;2.45;;;1.10;;
76939;SDS011;65885;55.848;35.916;2023-03-23T02:26:15;1.67;;;0.82;;
76939;SDS011;65885;55.848;35.916;2023-03-23T02:31:54;1.60;;;1.20;;
76939;SDS011;65885;55.848;35.916;2023-03-23T02:34:34;1.58;;;1.30;;
76939;SDS011;65885;55.848;35.916;2023-03-23T02:37:07;1.48;;;1.20;;
76939;SDS011;65885;55.848;35.916;2023-03-23T02:39:40;2.58;;;1.25;;
76939;SDS011;65885;55.848;35.916;2023-03-23T02:42:12;2.58;;;1.50;;
76939;SDS011;65885;55.848;35.916;2023-03-23T02:44:43;1.60;;;1.40;;
76939;SDS011;65885;55.848;35.916;2023-03-23T02:47:13;2.75;;;1.40;;
76939;SDS011;65885;55.848;35.916;2023-03-23T02:49:53;2.35;;;1.30;;
76939;SDS011;65885;55.848;35.916;2023-03-23T02:52:25;2.17;;;1.35;;
76939;SDS011;65885;55.848;35.916;2023-03-23T02:54:58;2.60;;;1.40;;
76939;SDS011;65885;55.848;35.916;2023-03-23T02:57:28;3.30;;;2.05;;
76939;SDS011;65885;55.848;35.916;2023-03-23T02:59:57;1.27;;;1.13;;
76939;SDS011;65885;55.848;35.916;2023-03-23T03:02:25;2.88;;;1.60;;
76939;SDS011;65885;55.848;35.916;2023-03-23T03:04:58;2.70;;;1.75;;
76939;SDS011;65885;55.848;35.916;2023-03-23T03:10:24;2.00;;;1.40;;
76939;SDS011;65885;55.848;35.916;2023-03-23T03:12:56;1.75;;;1.13;;
76939;SDS011;65885;55.848;35.916;2023-03-23T03:15:33;2.15;;;1.65;;
76939;SDS011;65885;55.848;35.916;2023-03-23T03:18:05;2.72;;;1.35;;
76939;SDS011;65885;55.848;35.916;2023-03-23T03:20:40;1.67;;;1.23;;
76939;SDS011;65885;55.848;35.916;2023-03-23T03:23:12;2.50;;;1.10;;
76939;SDS011;65885;55.848;35.916;2023-03-23T03:25:41;1.95;;;1.30;;
76939;SDS011;65885;55.848;35.916;2023-03-23T03:28:15;1.90;;;1.23;;
76939;SDS011;65885;55.848;35.916;2023-03-23T03:30:47;2.05;;;1.65;;
76939;SDS011;65885;55.848;35.916;2023-03-23T03:33:19;2.15;;;1.60;;
76939;SDS011;65885;55.848;35.916;2023-03-23T03:35:52;2.58;;;1.38;;
76939;SDS011;65885;55.848;35.916;2023-03-23T03:38:21;1.55;;;1.23;;
76939;SDS011;65885;55.848;35.916;2023-03-23T03:40:49;2.42;;;1.40;;
76939;SDS011;65885;55.848;35.916;2023-03-23T03:43:17;2.30;;;1.52;;
76939;SDS011;65885;55.848;35.916;2023-03-23T03:45:45;1.80;;;1.20;;
76939;SDS011;65885;55.848;35.916;2023-03-23T03:48:12;2.42;;;1.50;;
76939;SDS011;65885;55.848;35.916;2023-03-23T03:50:40;2.53;;;1.90;;
76939;SDS011;65885;55.848;35.916;2023-03-23T03:53:09;1.45;;;1.27;;
76939;SDS011;65885;55.848;35.916;2023-03-23T03:55:38;2.75;;;1.52;;
76939;SDS011;65885;55.848;35.916;2023-03-23T03:58:13;2.15;;;1.67;;
76939;SDS011;65885;55.848;35.916;2023-03-23T04:00:41;2.53;;;1.95;;
76939;SDS011;65885;55.848;35.916;2023-03-23T04:03:13;1.92;;;1.50;;
76939;SDS011;65885;55.848;35.916;2023-03-23T04:05:41;2.55;;;1.83;;
76939;SDS011;65885;55.848;35.916;2023-03-23T04:08:11;2.20;;;1.75;;
76939;SDS011;65885;55.848;35.916;2023-03-23T04:10:39;2.47;;;1.75;;
76939;SDS011;65885;55.848;35.916;2023-03-23T04:13:07;1.50;;;1.40;;
76939;SDS011;65885;55.848;35.916;2023-03-23T04:15:34;2.67;;;1.73;;
76939;SDS011;65885;55.848;35.916;2023-03-23T04:18:04;3.35;;;2.03;;
76939;SDS011;65885;55.848;35.916;2023-03-23T04:20:32;3.08;;;2.13;;
76939;SDS011;65885;55.848;35.916;2023-03-23T04:23:00;3.00;;;1.95;;
76939;SDS011;65885;55.848;35.916;2023-03-23T04:25:29;3.78;;;2.00;;
76939;SDS011;65885;55.848;35.916;2023-03-23T04:27:58;2.40;;;1.77;;
76939;SDS011;65885;55.848;35.916;2023-03-23T04:30:28;2.38;;;1.95;;
76939;SDS011;65885;55.848;35.916;2023-03-23T04:32:57;2.17;;;1.80;;
76939;SDS011;65885;55.848;35.916;2023-03-23T04:35:27;2.85;;;1.98;;
76939;SDS011;65885;55.848;35.916;2023-03-23T04:37:55;3.13;;;2.53;;
76939;SDS011;65885;55.848;35.916;2023-03-23T04:40:23;3.65;;;2.25;;
76939;SDS011;65885;55.848;35.916;2023-03-23T04:42:52;3.95;;;2.10;;
76939;SDS011;65885;55.848;35.916;2023-03-23T04:45:22;3.08;;;1.92;;
76939;SDS011;65885;55.848;35.916;2023-03-23T04:47:50;2.53;;;1.90;;
76939;SDS011;65885;55.848;35.916;2023-03-23T04:50:23;3.00;;;2.03;;
76939;SDS011;65885;55.848;35.916;2023-03-23T04:52:56;3.63;;;2.10;;
76939;SDS011;65885;55.848;35.916;2023-03-23T04:55:24;3.55;;;2.05;;
76939;SDS011;65885;55.848;35.916;2023-03-23T04:57:53;2.92;;;2.10;;
76939;SDS011;65885;55.848;35.916;2023-03-23T05:00:21;2.50;;;1.88;;
76939;SDS011;65885;55.848;35.916;2023-03-23T05:02:49;5.20;;;2.60;;
76939;SDS011;65885;55.848;35.916;2023-03-23T05:05:17;3.50;;;2.25;;
76939;SDS011;65885;55.848;35.916;2023-03-23T05:07:46;3.65;;;2.42;;
76939;SDS011;65885;55.848;35.916;2023-03-23T05:10:14;5.05;;;2.20;;
76939;SDS011;65885;55.848;35.916;2023-03-23T05:12:43;4.55;;;2.85;;
76939;SDS011;65885;55.848;35.916;2023-03-23T05:15:13;3.95;;;2.70;;
76939;SDS011;65885;55.848;35.916;2023-03-23T05:17:42;3.55;;;2.22;;
76939;SDS011;65885;55.848;35.916;2023-03-23T05:20:10;3.63;;;2.50;;
76939;SDS011;65885;55.848;35.916;2023-03-23T05:22:40;3.70;;;2.50;;
76939;SDS011;65885;55.848;35.916;2023-03-23T05:25:09;5.28;;;2.50;;
76939;SDS011;65885;55.848;35.916;2023-03-23T05:27:38;3.25;;;2.50;;
76939;SDS011;65885;55.848;35.916;2023-03-23T05:30:08;3.88;;;2.80;;
76939;SDS011;65885;55.848;35.916;2023-03-23T05:32:38;5.25;;;3.10;;
76939;SDS011;65885;55.848;35.916;2023-03-23T05:35:05;4.82;;;3.03;;
76939;SDS011;65885;55.848;35.916;2023-03-23T05:37:33;4.40;;;2.88;;
76939;SDS011;65885;55.848;35.916;2023-03-23T05:40:01;3.80;;;2.53;;
76939;SDS011;65885;55.848;35.916;2023-03-23T05:42:43;4.47;;;2.78;;
76939;SDS011;65885;55.848;35.916;2023-03-23T05:48:53;3.50;;;2.25;;
76939;SDS011;65885;55.848;35.916;2023-03-23T05:51:21;4.65;;;2.60;;
76939;SDS011;65885;55.848;35.916;2023-03-23T05:53:48;4.25;;;2.60;;
76939;SDS011;65885;55.848;35.916;2023-03-23T05:56:15;4.50;;;2.47;;
76939;SDS011;65885;55.848;35.916;2023-03-23T05:58:43;4.40;;;2.90;;
76939;SDS011;65885;55.848;35.916;2023-03-23T06:01:11;4.35;;;3.13;;
76939;SDS011;65885;55.848;35.916;2023-03-23T06:03:39;4.90;;;2.80;;
76939;SDS011;65885;55.848;35.916;2023-03-23T06:06:08;5.97;;;2.97;;
76939;SDS011;65885;55.848;35.916;2023-03-23T06:08:37;4.85;;;2.97;;
76939;SDS011;65885;55.848;35.916;2023-03-23T06:11:05;4.25;;;2.88;;
76939;SDS011;65885;55.848;35.916;2023-03-23T06:13:32;3.80;;;2.40;;
76939;SDS011;65885;55.848;35.916;2023-03-23T06:16:00;6.43;;;2.92;;
76939;SDS011;65885;55.848;35.916;2023-03-23T06:18:29;4.55;;;2.55;;
76939;SDS011;65885;55.848;35.916;2023-03-23T06:20:58;4.72;;;3.10;;
76939;SDS011;65885;55.848;35.916;2023-03-23T06:23:28;3.90;;;2.90;;
76939;SDS011;65885;55.848;35.916;2023-03-23T06:25:57;4.00;;;2.78;;
76939;SDS011;65885;55.848;35.916;2023-03-23T06:28:27;3.58;;;2.63;;
76939;SDS011;65885;55.848;35.916;2023-03-23T06:30:54;4.13;;;2.72;;
76939;SDS011;65885;55.848;35.916;2023-03-23T06:33:21;3.75;;;2.55;;
76939;SDS011;65885;55.848;35.916;2023-03-23T06:35:48;3.70;;;2.58;;
76939;SDS011;65885;55.848;35.916;2023-03-23T06:38:18;3.40;;;2.60;;
76939;SDS011;65885;55.848;35.916;2023-03-23T06:40:47;3.45;;;2.75;;
76939;SDS011;65885;55.848;35.916;2023-03-23T06:43:16;4.32;;;2.85;;
76939;SDS011;65885;55.848;35.916;2023-03-23T06:45:43;3.55;;;2.53;;
76939;SDS011;65885;55.848;35.916;2023-03-23T06:48:10;5.13;;;2.58;;
76939;SDS011;65885;55.848;35.916;2023-03-23T06:50:38;5.00;;;3.03;;
76939;SDS011;65885;55.848;35.916;2023-03-23T06:53:05;4.60;;;2.50;;
76939;SDS011;65885;55.848;35.916;2023-03-23T06:55:33;4.47;;;2.90;;
76939;SDS011;65885;55.848;35.916;2023-03-23T06:58:01;4.30;;;2.90;;
76939;SDS011;65885;55.848;35.916;2023-03-23T07:00:42;4.03;;;3.15;;
76939;SDS011;65885;55.848;35.916;2023-03-23T07:03:11;4.43;;;2.72;;
76939;SDS011;65885;55.848;35.916;2023-03-23T07:05:38;2.72;;;2.35;;
76939;SDS011;65885;55.848;35.916;2023-03-23T07:08:06;4.68;;;2.20;;
76939;SDS011;65885;55.848;35.916;2023-03-23T07:10:34;4.10;;;2.58;;
76939;SDS011;65885;55.848;35.916;2023-03-23T07:13:03;4.07;;;2.75;;
76939;SDS011;65885;55.848;35.916;2023-03-23T07:15:31;3.28;;;2.40;;
76939;SDS011;65885;55.848;35.916;2023-03-23T07:17:58;4.35;;;2.70;;
76939;SDS011;65885;55.848;35.916;2023-03-23T07:20:25;4.30;;;2.67;;
76939;SDS011;65885;55.848;35.916;2023-03-23T07:22:53;3.05;;;2.17;;
76939;SDS011;65885;55.848;35.916;2023-03-23T07:25:21;2.90;;;2.58;;
76939;SDS011;65885;55.848;35.916;2023-03-23T07:27:49;3.67;;;2.30;;
76939;SDS011;65885;55.848;35.916;2023-03-23T07:30:18;3.13;;;2.50;;
76939;SDS011;65885;55.848;35.916;2023-03-23T07:32:45;3.13;;;2.30;;
76939;SDS011;65885;55.848;35.916;2023-03-23T07:35:13;4.95;;;2.45;;
76939;SDS011;65885;55.848;35.916;2023-03-23T07:37:41;4.13;;;2.40;;
76939;SDS011;65885;55.848;35.916;2023-03-23T07:40:09;3.15;;;2.47;;
76939;SDS011;65885;55.848;35.916;2023-03-23T07:42:40;3.28;;;2.70;;
76939;SDS011;65885;55.848;35.916;2023-03-23T07:45:09;3.42;;;2.33;;
76939;SDS011;65885;55.848;35.916;2023-03-23T07:47:39;3.13;;;2.25;;
76939;SDS011;65885;55.848;35.916;2023-03-23T07:50:07;3.20;;;2.22;;
76939;SDS011;65885;55.848;35.916;2023-03-23T07:52:36;2.97;;;1.90;;
76939;SDS011;65885;55.848;35.916;2023-03-23T07:55:05;2.97;;;2.30;;
76939;SDS011;65885;55.848;35.916;2023-03-23T07:57:37;2.83;;;2.40;;
76939;SDS011;65885;55.848;35.916;2023-03-23T08:00:05;2.35;;;1.90;;
76939;SDS011;65885;55.848;35.916;2023-03-23T08:02:42;2.00;;;1.80;;
76939;SDS011;65885;55.848;35.916;2023-03-23T08:05:09;2.55;;;2.13;;
76939;SDS011;65885;55.848;35.916;2023-03-23T08:07:38;2.38;;;2.08;;
76939;SDS011;65885;55.848;35.916;2023-03-23T08:10:07;2.55;;;2.20;;
76939;SDS011;65885;55.848;35.916;2023-03-23T08:12:38;2.47;;;1.80;;
76939;SDS011;65885;55.848;35.916;2023-03-23T08:15:07;3.33;;;2.10;;
76939;SDS011;65885;55.848;35.916;2023-03-23T08:17:37;2.58;;;1.65;;
76939;SDS011;65885;55.848;35.916;2023-03-23T08:20:09;2.80;;;2.00;;
76939;SDS011;65885;55.848;35.916;2023-03-23T08:22:38;3.28;;;1.90;;
76939;SDS011;65885;55.848;35.916;2023-03-23T08:25:09;3.15;;;1.80;;
76939;SDS011;65885;55.848;35.916;2023-03-23T08:27:38;3.05;;;2.13;;
76939;SDS011;65885;55.848;35.916;2023-03-23T08:30:09;1.83;;;1.52;;
76939;SDS011;65885;55.848;35.916;2023-03-23T08:32:38;2.92;;;1.80;;
76939;SDS011;65885;55.848;35.916;2023-03-23T08:35:06;2.67;;;2.20;;
76939;SDS011;65885;55.848;35.916;2023-03-23T08:37:36;1.90;;;1.60;;
76939;SDS011;65885;55.848;35.916;2023-03-23T08:40:04;2.38;;;1.77;;
76939;SDS011;65885;55.848;35.916;2023-03-23T08:42:34;2.70;;;1.60;;
76939;SDS011;65885;55.848;35.916;2023-03-23T08:45:03;2.33;;;1.70;;
76939;SDS011;65885;55.848;35.916;2023-03-23T08:47:32;2.08;;;1.65;;
76939;SDS011;65885;55.848;35.916;2023-03-23T08:50:00;2.17;;;1.67;;
76939;SDS011;65885;55.848;35.916;2023-03-23T08:52:29;2.30;;;1.50;;
76939;SDS011;65885;55.848;35.916;2023-03-23T08:54:58;2.95;;;2.03;;
76939;SDS011;65885;55.848;35.916;2023-03-23T08:57:25;2.08;;;1.38;;
76939;SDS011;65885;55.848;35.916;2023-03-23T08:59:54;2.97;;;1.83;;
76939;SDS011;65885;55.848;35.916;2023-03-23T09:02:25;2.88;;;1.50;;
76939;SDS011;65885;55.848;35.916;2023-03-23T09:04:56;3.03;;;2.03;;
76939;SDS011;65885;55.848;35.916;2023-03-23T09:07:23;2.35;;;1.70;;
76939;SDS011;65885;55.848;35.916;2023-03-23T09:09:51;2.15;;;1.60;;
76939;SDS011;65885;55.848;35.916;2023-03-23T09:12:19;2.75;;;1.67;;
76939;SDS011;65885;55.848;35.916;2023-03-23T09:14:48;3.08;;;2.00;;
76939;SDS011;65885;55.848;35.916;2023-03-23T09:17:16;1.90;;;1.35;;
76939;SDS011;65885;55.848;35.916;2023-03-23T09:19:43;1.98;;;1.40;;
76939;SDS011;65885;55.848;35.916;2023-03-23T09:22:11;2.92;;;1.88;;
76939;SDS011;65885;55.848;35.916;2023-03-23T09:24:40;2.72;;;1.98;;
76939;SDS011;65885;55.848;35.916;2023-03-23T09:27:08;2.53;;;1.83;;
76939;SDS011;65885;55.848;35.916;2023-03-23T09:29:37;2.67;;;2.03;;
76939;SDS011;65885;55.848;35.916;2023-03-23T09:32:04;3.45;;;2.40;;
76939;SDS011;65885;55.848;35.916;2023-03-23T09:34:33;2.95;;;1.92;;
76939;SDS011;65885;55.848;35.916;2023-03-23T09:37:04;4.05;;;2.33;;
76939;SDS011;65885;55.848;35.916;2023-03-23T09:39:32;2.65;;;2.13;;
76939;SDS011;65885;55.848;35.916;2023-03-23T09:42:05;3.03;;;2.17;;
76939;SDS011;65885;55.848;35.916;2023-03-23T09:44:47;3.13;;;2.55;;
76939;SDS011;65885;55.848;35.916;2023-03-23T09:47:25;2.75;;;2.13;;
76939;SDS011;65885;55.848;35.916;2023-03-23T09:50:03;3.05;;;2.22;;
76939;SDS011;65885;55.848;35.916;2023-03-23T09:52:37;3.47;;;2.42;;
76939;SDS011;65885;55.848;35.916;2023-03-23T09:55:09;3.47;;;2.25;;
76939;SDS011;65885;55.848;35.916;2023-03-23T09:57:45;4.05;;;2.28;;
76939;SDS011;65885;55.848;35.916;2023-03-23T10:00:22;2.83;;;2.25;;
76939;SDS011;65885;55.848;35.916;2023-03-23T10:02:55;3.13;;;2.30;;
76939;SDS011;65885;55.848;35.916;2023-03-23T10:05:30;3.75;;;2.60;;
76939;SDS011;65885;55.848;35.916;2023-03-23T10:08:00;3.28;;;2.33;;
76939;SDS011;65885;55.848;35.916;2023-03-23T10:10:36;4.07;;;2.20;;
76939;SDS011;65885;55.848;35.916;2023-03-23T10:15:44;3.85;;;2.25;;
76939;SDS011;65885;55.848;35.916;2023-03-23T10:20:46;3.67;;;2.10;;
76939;SDS011;65885;55.848;35.916;2023-03-23T10:26:33;3.60;;;2.30;;
76939;SDS011;65885;55.848;35.916;2023-03-23T10:29:12;3.70;;;2.13;;
76939;SDS011;65885;55.848;35.916;2023-03-23T10:31:46;3.10;;;2.25;;
76939;SDS011;65885;55.848;35.916;2023-03-23T10:34:18;2.88;;;2.28;;
76939;SDS011;65885;55.848;35.916;2023-03-23T10:36:56;2.92;;;2.22;;
76939;SDS011;65885;55.848;35.916;2023-03-23T10:39:29;3.13;;;2.53;;
76939;SDS011;65885;55.848;35.916;2023-03-23T10:42:00;3.47;;;2.17;;
76939;SDS011;65885;55.848;35.916;2023-03-23T10:44:32;2.65;;;2.28;;
76939;SDS011;65885;55.848;35.916;2023-03-23T10:47:02;2.20;;;2.00;;
76939;SDS011;65885;55.848;35.916;2023-03-23T10:49:34;3.70;;;2.35;;
76939;SDS011;65885;55.848;35.916;2023-03-23T10:52:09;3.38;;;2.25;;
76939;SDS011;65885;55.848;35.916;2023-03-23T10:54:55;3.40;;;2.10;;
76939;SDS011;65885;55.848;35.916;2023-03-23T10:57:25;3.22;;;2.10;;
76939;SDS011;65885;55.848;35.916;2023-03-23T11:00:00;3.70;;;2.60;;
76939;SDS011;65885;55.848;35.916;2023-03-23T11:02:35;3.05;;;2.30;;
76939;SDS011;65885;55.848;35.916;2023-03-23T11:05:07;3.22;;;2.40;;
76939;SDS011;65885;55.848;35.916;2023-03-23T11:07:47;3.13;;;2.55;;
76939;SDS011;65885;55.848;35.916;2023-03-23T11:10:20;3.35;;;2.13;;
76939;SDS011;65885;55.848;35.916;2023-03-23T11:12:49;3.22;;;2.25;;
76939;SDS011;65885;55.848;35.916;2023-03-23T11:15:23;2.72;;;2.20;;
76939;SDS011;65885;55.848;35.916;2023-03-23T11:17:56;2.67;;;2.15;;
76939;SDS011;65885;55.848;35.916;2023-03-23T11:20:28;3.08;;;2.15;;
76939;SDS011;65885;55.848;35.916;2023-03-23T11:23:01;3.28;;;2.25;;
76939;SDS011;65885;55.848;35.916;2023-03-23T11:25:34;3.05;;;2.30;;
76939;SDS011;65885;55.848;35.916;2023-03-23T11:28:22;4.20;;;2.10;;
76939;SDS011;65885;55.848;35.916;2023-03-23T11:30:55;2.92;;;2.35;;
76939;SDS011;65885;55.848;35.916;2023-03-23T11:33:26;3.20;;;2.22;;
76939;SDS011;65885;55.848;35.916;2023-03-23T11:35:56;4.18;;;2.60;;
76939;SDS011;65885;55.848;35.916;2023-03-23T11:38:24;3.83;;;2.22;;
76939;SDS011;65885;55.848;35.916;2023-03-23T11:40:53;4.10;;;2.30;;
76939;SDS011;65885;55.848;35.916;2023-03-23T11:43:22;2.67;;;1.77;;
76939;SDS011;65885;55.848;35.916;2023-03-23T11:45:58;3.00;;;2.10;;
76939;SDS011;65885;55.848;35.916;2023-03-23T11:48:33;3.53;;;2.25;;
76939;SDS011;65885;55.848;35.916;2023-03-23T11:51:05;3.13;;;2.58;;
76939;SDS011;65885;55.848;35.916;2023-03-23T11:53:41;2.80;;;2.10;;
76939;SDS011;65885;55.848;35.916;2023-03-23T11:56:16;2.78;;;2.33;;
76939;SDS011;65885;55.848;35.916;2023-03-23T11:58:50;3.55;;;2.13;;
76939;SDS011;65885;55.848;35.916;2023-03-23T12:01:24;3.42;;;2.45;;
76939;SDS011;65885;55.848;35.916;2023-03-23T12:04:16;3.63;;;2.42;;
76939;SDS011;65885;55.848;35.916;2023-03-23T12:07:05;2.63;;;2.13;;
76939;SDS011;65885;55.848;35.916;2023-03-23T12:09:55;3.40;;;2.10;;
76939;SDS011;65885;55.848;35.916;2023-03-23T12:12:31;3.05;;;2.25;;
76939;SDS011;65885;55.848;35.916;2023-03-23T12:15:08;3.65;;;2.40;;
76939;SDS011;65885;55.848;35.916;2023-03-23T12:17:46;3.15;;;2.28;;
76939;SDS011;65885;55.848;35.916;2023-03-23T12:20:24;3.47;;;2.22;;
76939;SDS011;65885;55.848;35.916;2023-03-23T12:23:02;3.30;;;2.20;;
76939;SDS011;65885;55.848;35.916;2023-03-23T12:28:55;3.78;;;2.40;;
76939;SDS011;65885;55.848;35.916;2023-03-23T12:31:59;3.58;;;2.40;;
76939;SDS011;65885;55.848;35.916;2023-03-23T12:34:39;3.75;;;2.25;;
76939;SDS011;65885;55.848;35.916;2023-03-23T12:37:22;3.17;;;2.20;;
76939;SDS011;65885;55.848;35.916;2023-03-23T12:40:07;3.08;;;2.30;;
76939;SDS011;65885;55.848;35.916;2023-03-23T12:42:50;3.65;;;2.65;;
76939;SDS011;65885;55.848;35.916;2023-03-23T12:50:44;3.22;;;2.28;;
76939;SDS011;65885;55.848;35.916;2023-03-23T12:53:30;3.70;;;2.40;;
76939;SDS011;65885;55.848;35.916;2023-03-23T12:56:06;3.65;;;2.60;;
76939;SDS011;65885;55.848;35.916;2023-03-23T12:58:44;2.22;;;1.95;;
76939;SDS011;65885;55.848;35.916;2023-03-23T13:01:14;3.20;;;2.40;;
76939;SDS011;65885;55.848;35.916;2023-03-23T13:03:48;3.78;;;2.38;;
76939;SDS011;65885;55.848;35.916;2023-03-23T13:06:22;3.00;;;1.92;;
76939;SDS011;65885;55.848;35.916;2023-03-23T13:08:58;2.00;;;1.75;;
76939;SDS011;65885;55.848;35.916;2023-03-23T13:11:30;2.28;;;2.00;;
76939;SDS011;65885;55.848;35.916;2023-03-23T13:14:03;3.70;;;2.13;;
76939;SDS011;65885;55.848;35.916;2023-03-23T13:16:41;3.65;;;2.35;;
76939;SDS011;65885;55.848;35.916;2023-03-23T13:19:23;4.05;;;2.10;;
76939;SDS011;65885;55.848;35.916;2023-03-23T13:21:59;4.47;;;2.38;;
76939;SDS011;65885;55.848;35.916;2023-03-23T13:24:35;3.22;;;2.03;;
76939;SDS011;65885;55.848;35.916;2023-03-23T13:27:06;3.45;;;2.10;;
76939;SDS011;65885;55.848;35.916;2023-03-23T13:32:11;2.80;;;2.08;;
76939;SDS011;65885;55.848;35.916;2023-03-23T13:34:45;2.70;;;2.10;;
76939;SDS011;65885;55.848;35.916;2023-03-23T13:37:19;3.53;;;2.75;;
76939;SDS011;65885;55.848;35.916;2023-03-23T13:39:52;4.03;;;2.35;;
76939;SDS011;65885;55.848;35.916;2023-03-23T13:42:22;3.15;;;2.10;;
76939;SDS011;65885;55.848;35.916;2023-03-23T13:45:05;2.47;;;2.13;;
76939;SDS011;65885;55.848;35.916;2023-03-23T13:47:36;3.67;;;2.30;;
76939;SDS011;65885;55.848;35.916;2023-03-23T13:50:10;4.20;;;2.53;;
76939;SDS011;65885;55.848;35.916;2023-03-23T13:52:46;2.83;;;1.95;;
76939;SDS011;65885;55.848;35.916;2023-03-23T13:55:22;3.75;;;2.65;;
76939;SDS011;65885;55.848;35.916;2023-03-23T13:57:58;3.28;;;2.30;;
76939;SDS011;65885;55.848;35.916;2023-03-23T14:00:45;3.25;;;2.58;;
76939;SDS011;65885;55.848;35.916;2023-03-23T14:05:44;1.95;;;1.73;;
76939;SDS011;65885;55.848;35.916;2023-03-23T14:10:52;2.95;;;2.20;;
76939;SDS011;65885;55.848;35.916;2023-03-23T14:13:23;2.75;;;2.13;;
76939;SDS011;65885;55.848;35.916;2023-03-23T14:15:57;2.47;;;1.90;;
76939;SDS011;65885;55.848;35.916;2023-03-23T14:18:30;3.00;;;2.22;;
76939;SDS011;65885;55.848;35.916;2023-03-23T14:21:02;3.53;;;2.35;;
76939;SDS011;65885;55.848;35.916;2023-03-23T14:23:31;3.80;;;2.22;;
76939;SDS011;65885;55.848;35.916;2023-03-23T14:26:02;3.08;;;2.38;;
76939;SDS011;65885;55.848;35.916;2023-03-23T14:28:37;2.75;;;2.08;;
76939;SDS011;65885;55.848;35.916;2023-03-23T14:31:10;3.35;;;2.20;;
76939;SDS011;65885;55.848;35.916;2023-03-23T14:33:44;3.55;;;2.30;;
76939;SDS011;65885;55.848;35.916;2023-03-23T14:36:13;4.45;;;2.50;;
76939;SDS011;65885;55.848;35.916;2023-03-23T14:38:41;3.60;;;2.63;;
76939;SDS011;65885;55.848;35.916;2023-03-23T14:41:11;3.33;;;2.15;;
76939;SDS011;65885;55.848;35.916;2023-03-23T14:43:39;3.28;;;2.55;;
76939;SDS011;65885;55.848;35.916;2023-03-23T14:46:07;4.18;;;2.40;;
76939;SDS011;65885;55.848;35.916;2023-03-23T14:48:38;2.83;;;1.95;;
76939;SDS011;65885;55.848;35.916;2023-03-23T14:51:07;3.92;;;2.33;;
76939;SDS011;65885;55.848;35.916;2023-03-23T14:53:45;3.63;;;2.42;;
76939;SDS011;65885;55.848;35.916;2023-03-23T14:58:47;3.95;;;2.28;;
76939;SDS011;65885;55.848;35.916;2023-03-23T15:01:17;3.20;;;2.47;;
76939;SDS011;65885;55.848;35.916;2023-03-23T15:06:18;4.22;;;2.45;;
76939;SDS011;65885;55.848;35.916;2023-03-23T15:11:22;4.15;;;2.63;;
76939;SDS011;65885;55.848;35.916;2023-03-23T15:13:52;4.07;;;2.83;;
76939;SDS011;65885;55.848;35.916;2023-03-23T15:16:23;3.40;;;2.83;;
76939;SDS011;65885;55.848;35.916;2023-03-23T15:18:53;3.67;;;2.40;;
76939;SDS011;65885;55.848;35.916;2023-03-23T15:23:51;3.88;;;2.63;;
76939;SDS011;65885;55.848;35.916;2023-03-23T15:26:31;4.00;;;2.80;;
76939;SDS011;65885;55.848;35.916;2023-03-23T15:31:49;3.45;;;3.10;;
76939;SDS011;65885;55.848;35.916;2023-03-23T15:34:20;4.20;;;2.75;;
76939;SDS011;65885;55.848;35.916;2023-03-23T15:36:55;4.35;;;3.30;;
76939;SDS011;65885;55.848;35.916;2023-03-23T15:39:25;5.07;;;2.92;;
76939;SDS011;65885;55.848;35.916;2023-03-23T15:41:56;3.60;;;3.00;;
76939;SDS011;65885;55.848;35.916;2023-03-23T15:44:25;5.20;;;2.97;;
76939;SDS011;65885;55.848;35.916;2023-03-23T15:47:14;4.57;;;3.03;;
76939;SDS011;65885;55.848;35.916;2023-03-23T15:49:43;4.10;;;2.90;;